Time;durP1;ratioP1;P1;durP2;ratioP2;P2;SDS_P1;SDS_P2;PMS_P1;PMS_P2;Temp;Humidity;BMP_temperature;BMP_pressure;BME280_temperature;BME280_humidity;BME280_pressure;Samples;Min_cycle;Max_cycle;Signal;HPM_P1;HPM_P2
2024/01/18 00:00:16;;;;;;;2.45;2.25;;;19.50;50.10;;;;;;5049090;28;20493;-53
2024/01/18 00:02:42;;;;;;;2.83;2.42;;;19.50;50.10;;;;;;5047844;28;20140;-53
2024/01/18 00:05:07;;;;;;;2.38;2.05;;;19.50;50.10;;;;;;5049808;28;20398;-59
2024/01/18 00:07:33;;;;;;;3.50;2.45;;;19.50;50.10;;;;;;5048356;28;20029;-49
2024/01/18 00:09:59;;;;;;;2.40;2.17;;;19.50;50.10;;;;;;5051525;28;20707;-55
2024/01/18 00:12:24;;;;;;;2.47;2.28;;;19.50;50.10;;;;;;5050609;28;20537;-49
2024/01/18 00:14:50;;;;;;;3.53;2.47;;;19.50;50.10;;;;;;5031810;28;20424;-49
2024/01/18 00:17:16;;;;;;;3.17;2.53;;;19.50;50.10;;;;;;5050405;28;20087;-49
2024/01/18 00:19:42;;;;;;;3.03;2.13;;;19.50;50.10;;;;;;5047960;28;20036;-46
2024/01/18 00:22:07;;;;;;;3.10;2.45;;;19.50;50.00;;;;;;5044715;28;20397;-49
2024/01/18 00:24:33;;;;;;;3.53;2.28;;;19.50;50.10;;;;;;5050712;28;20032;-51
2024/01/18 00:27:00;;;;;;;2.78;1.88;;;19.50;50.00;;;;;;5047360;28;20029;-58
2024/01/18 00:29:26;;;;;;;2.95;2.55;;;19.50;50.00;;;;;;5049979;28;20033;-51
2024/01/18 00:31:52;;;;;;;3.67;2.55;;;19.50;50.00;;;;;;5054046;28;20036;-53
2024/01/18 00:34:17;;;;;;;4.60;2.17;;;19.50;50.00;;;;;;5053882;28;20033;-54
2024/01/18 00:36:46;;;;;;;2.70;2.20;;;19.50;50.10;;;;;;5043701;28;20572;-56
2024/01/18 00:39:16;;;;;;;2.67;2.17;;;19.50;50.10;;;;;;5034825;28;20032;-53
2024/01/18 00:41:41;;;;;;;2.35;2.13;;;19.50;50.10;;;;;;5044076;28;20454;-53
2024/01/18 00:44:07;;;;;;;3.83;2.47;;;19.50;50.10;;;;;;5047511;28;20021;-47
2024/01/18 00:46:32;;;;;;;3.38;2.40;;;19.50;50.10;;;;;;5051126;28;20024;-48
2024/01/18 00:48:58;;;;;;;2.35;2.00;;;19.50;50.10;;;;;;5046247;28;20032;-51
2024/01/18 00:51:23;;;;;;;2.03;1.92;;;19.50;50.20;;;;;;5048171;28;20078;-56
2024/01/18 00:53:49;;;;;;;2.53;1.88;;;19.50;50.10;;;;;;5052161;28;20025;-48
2024/01/18 00:56:14;;;;;;;2.45;2.03;;;19.50;50.10;;;;;;5046236;28;20025;-50
2024/01/18 00:58:41;;;;;;;2.80;2.15;;;19.50;50.10;;;;;;5043285;28;20029;-51
2024/01/18 01:01:06;;;;;;;2.80;2.20;;;19.50;50.10;;;;;;5046396;28;20494;-50
2024/01/18 01:03:32;;;;;;;2.60;1.85;;;19.50;50.10;;;;;;5044091;28;20047;-57
2024/01/18 01:05:57;;;;;;;3.35;2.38;;;19.50;50.20;;;;;;5050368;28;20048;-46
2024/01/18 01:08:23;;;;;;;2.53;2.03;;;19.40;50.20;;;;;;5057782;28;20046;-52
2024/01/18 01:10:48;;;;;;;2.17;1.80;;;19.40;50.30;;;;;;5042262;28;20490;-54
2024/01/18 01:13:13;;;;;;;3.17;2.28;;;19.30;50.40;;;;;;5045126;28;20767;-51
2024/01/18 01:15:39;;;;;;;3.33;2.17;;;19.30;50.50;;;;;;5044187;28;20498;-46
2024/01/18 01:18:04;;;;;;;1.98;1.80;;;19.20;50.60;;;;;;5048728;28;20037;-54
2024/01/18 01:20:30;;;;;;;1.75;1.60;;;19.20;50.70;;;;;;5043918;28;20108;-54
2024/01/18 01:22:56;;;;;;;2.55;2.35;;;19.10;50.80;;;;;;5050328;28;20029;-51
2024/01/18 01:25:22;;;;;;;2.13;1.92;;;19.10;50.90;;;;;;5048154;28;20032;-47
2024/01/18 01:27:48;;;;;;;1.75;1.60;;;19.00;51.00;;;;;;5047456;28;20037;-50
2024/01/18 01:30:14;;;;;;;2.90;1.50;;;19.00;51.10;;;;;;5047759;28;20097;-47
2024/01/18 01:32:40;;;;;;;2.03;1.70;;;18.90;51.10;;;;;;5043320;28;20045;-56
2024/01/18 01:35:05;;;;;;;1.95;1.73;;;18.90;51.40;;;;;;5054384;28;20039;-47
2024/01/18 01:37:31;;;;;;;2.05;1.88;;;18.80;51.50;;;;;;5045767;28;20028;-50
2024/01/18 01:39:56;;;;;;;2.50;1.65;;;18.70;51.50;;;;;;5044921;28;20482;-52
2024/01/18 01:42:22;;;;;;;2.40;1.85;;;18.80;51.60;;;;;;5049185;28;20029;-56
2024/01/18 01:44:47;;;;;;;3.00;2.08;;;18.70;51.50;;;;;;5047767;28;20041;-54
2024/01/18 01:47:13;;;;;;;2.20;1.98;;;18.70;51.50;;;;;;5046359;28;20032;-56
2024/01/18 01:49:39;;;;;;;2.08;1.60;;;18.80;51.40;;;;;;5046299;28;20029;-51
2024/01/18 01:52:05;;;;;;;1.95;1.75;;;18.80;51.30;;;;;;5044826;28;20021;-52
2024/01/18 01:54:32;;;;;;;1.98;1.73;;;18.90;51.20;;;;;;5043035;28;20113;-48
2024/01/18 01:56:59;;;;;;;1.85;1.50;;;18.90;51.10;;;;;;5049372;28;20036;-57
2024/01/18 01:59:25;;;;;;;1.75;1.65;;;19.00;51.10;;;;;;5036680;28;20033;-54
2024/01/18 02:01:52;;;;;;;1.60;1.50;;;19.00;50.90;;;;;;5038752;28;20074;-57
2024/01/18 02:04:18;;;;;;;1.50;1.40;;;19.00;50.80;;;;;;5043034;28;20040;-56
2024/01/18 02:06:46;;;;;;;1.42;1.30;;;19.10;50.70;;;;;;5046195;28;20047;-51
2024/01/18 02:09:11;;;;;;;2.80;1.60;;;19.20;50.60;;;;;;5046145;28;20114;-55
2024/01/18 02:11:37;;;;;;;1.60;1.50;;;19.20;50.40;;;;;;5045515;28;20048;-53
2024/01/18 02:14:03;;;;;;;1.92;1.60;;;19.30;50.40;;;;;;5045672;28;20062;-49
2024/01/18 02:16:30;;;;;;;2.42;1.73;;;19.40;50.20;;;;;;5044095;28;20021;-50
2024/01/18 02:18:56;;;;;;;1.40;1.30;;;19.40;50.10;;;;;;5046658;28;20041;-55
2024/01/18 02:21:21;;;;;;;2.22;1.67;;;19.40;50.00;;;;;;5045947;28;20448;-47
2024/01/18 02:23:52;;;;;;;1.98;1.50;;;19.50;50.00;;;;;;5046545;28;20486;-52
2024/01/18 02:26:17;;;;;;;1.73;1.63;;;19.50;50.00;;;;;;5033303;28;20033;-55
2024/01/18 02:28:54;;;;;;;1.42;1.30;;;19.60;49.90;;;;;;5043080;28;20029;-51
2024/01/18 02:31:20;;;;;;;1.50;1.30;;;19.60;49.80;;;;;;5044556;28;20155;-48
2024/01/18 02:33:45;;;;;;;2.03;1.73;;;19.60;49.80;;;;;;5054438;28;20680;-51
2024/01/18 02:36:11;;;;;;;1.50;1.25;;;19.60;49.80;;;;;;5043549;28;20109;-48
2024/01/18 02:38:36;;;;;;;1.27;1.10;;;19.70;49.80;;;;;;5046358;28;20018;-48
2024/01/18 02:41:03;;;;;;;1.48;1.35;;;19.70;49.70;;;;;;5044497;28;20524;-50
2024/01/18 02:43:29;;;;;;;2.53;1.73;;;19.70;49.60;;;;;;5043033;28;20049;-50
2024/01/18 02:45:54;;;;;;;1.38;1.27;;;19.70;49.60;;;;;;5043175;28;20369;-51
2024/01/18 02:48:20;;;;;;;1.55;1.33;;;19.70;49.60;;;;;;5047603;28;20505;-51
2024/01/18 02:50:46;;;;;;;1.50;1.33;;;19.70;49.60;;;;;;5037298;28;20071;-51
2024/01/18 02:53:11;;;;;;;1.67;1.52;;;19.70;49.60;;;;;;5050502;28;20021;-54
2024/01/18 02:55:37;;;;;;;1.88;1.55;;;19.80;49.60;;;;;;5031824;28;20120;-49
2024/01/18 02:58:02;;;;;;;1.83;1.38;;;19.70;49.60;;;;;;5043841;28;20033;-47
2024/01/18 03:00:28;;;;;;;1.50;1.40;;;19.80;49.60;;;;;;5035055;28;20036;-50
2024/01/18 03:02:53;;;;;;;1.30;1.20;;;19.80;50.30;;;;;;5028504;28;20064;-53
2024/01/18 03:05:19;;;;;;;1.25;1.10;;;19.80;49.70;;;;;;5008184;28;20045;-46
2024/01/18 03:07:44;;;;;;;1.48;1.38;;;19.70;49.60;;;;;;5040391;28;20029;-51
2024/01/18 03:10:10;;;;;;;1.60;1.50;;;19.70;49.70;;;;;;5043382;28;20032;-48
2024/01/18 03:12:37;;;;;;;1.30;1.20;;;19.70;49.70;;;;;;5046688;28;20040;-55
2024/01/18 03:15:05;;;;;;;1.40;1.30;;;19.60;49.80;;;;;;5046817;28;20482;-52
2024/01/18 03:17:31;;;;;;;1.50;1.40;;;19.60;49.90;;;;;;5045185;28;20037;-51
2024/01/18 03:19:56;;;;;;;1.58;1.15;;;19.60;49.90;;;;;;5046426;28;20697;-51
2024/01/18 03:22:22;;;;;;;1.42;1.13;;;19.60;50.00;;;;;;5046359;28;20028;-54
2024/01/18 03:24:47;;;;;;;1.35;1.25;;;19.60;50.00;;;;;;5046438;28;20112;-54
2024/01/18 03:27:13;;;;;;;1.40;1.30;;;19.50;50.10;;;;;;5048062;28;20029;-57
2024/01/18 03:29:39;;;;;;;1.65;1.23;;;19.50;50.20;;;;;;5045259;28;20036;-52
2024/01/18 03:32:04;;;;;;;1.50;1.40;;;19.40;50.20;;;;;;5046913;28;20392;-54
2024/01/18 03:34:30;;;;;;;1.52;1.30;;;19.40;50.20;;;;;;5047637;28;20033;-61
2024/01/18 03:36:55;;;;;;;1.33;1.20;;;19.40;50.30;;;;;;5049067;28;20025;-55
2024/01/18 03:39:21;;;;;;;1.80;1.40;;;19.40;50.30;;;;;;5049027;28;20591;-48
2024/01/18 03:41:46;;;;;;;1.48;1.38;;;19.30;50.40;;;;;;5048792;28;20224;-55
2024/01/18 03:44:12;;;;;;;1.98;1.65;;;19.30;50.40;;;;;;5048164;28;20031;-48
2024/01/18 03:46:37;;;;;;;1.10;1.00;;;19.30;50.50;;;;;;5046551;28;20025;-54
2024/01/18 03:49:03;;;;;;;1.75;1.38;;;19.30;50.50;;;;;;5058164;28;20033;-51
2024/01/18 03:51:28;;;;;;;2.00;1.50;;;19.20;50.50;;;;;;5050040;28;20024;-46
2024/01/18 03:53:54;;;;;;;1.50;1.40;;;19.20;50.60;;;;;;5047890;28;20037;-50
2024/01/18 03:56:19;;;;;;;1.30;1.05;;;19.20;50.60;;;;;;5050101;28;20039;-50
2024/01/18 03:58:45;;;;;;;1.52;1.35;;;19.20;50.60;;;;;;5051240;28;20028;-50
2024/01/18 04:01:10;;;;;;;1.55;1.30;;;19.20;50.70;;;;;;5037923;28;20060;-50
2024/01/18 04:03:36;;;;;;;1.50;1.40;;;19.20;50.70;;;;;;5046901;28;20036;-48
2024/01/18 04:06:01;;;;;;;1.30;1.20;;;19.10;50.60;;;;;;5029277;28;20113;-52
2024/01/18 04:08:27;;;;;;;1.15;0.95;;;19.10;50.60;;;;;;5044769;28;20636;-48
2024/01/18 04:10:52;;;;;;;1.48;1.38;;;19.10;50.70;;;;;;5051538;28;20318;-49
2024/01/18 04:13:18;;;;;;;1.35;1.20;;;19.10;50.70;;;;;;5046845;28;21363;-48
2024/01/18 04:15:43;;;;;;;1.83;1.55;;;19.10;50.70;;;;;;5040905;28;20037;-49
2024/01/18 04:18:09;;;;;;;1.40;1.20;;;19.10;50.80;;;;;;5052230;28;20517;-49
2024/01/18 04:20:34;;;;;;;1.20;1.10;;;19.10;50.70;;;;;;5045500;28;20025;-49
2024/01/18 04:23:00;;;;;;;2.55;1.17;;;19.10;50.80;;;;;;5042394;28;20029;-50
2024/01/18 04:25:26;;;;;;;1.60;1.30;;;19.10;50.80;;;;;;5051886;28;20029;-48
2024/01/18 04:27:51;;;;;;;1.17;1.02;;;19.10;50.80;;;;;;5019719;28;20088;-49
2024/01/18 04:30:17;;;;;;;1.35;1.23;;;19.00;50.70;;;;;;5042666;28;20033;-48
2024/01/18 04:32:42;;;;;;;1.52;1.20;;;19.10;50.80;;;;;;5046609;28;20717;-48
2024/01/18 04:35:08;;;;;;;1.50;1.40;;;19.10;50.80;;;;;;5046714;28;20176;-50
2024/01/18 04:37:33;;;;;;;1.40;1.15;;;19.00;50.70;;;;;;5041700;28;20486;-50
2024/01/18 04:39:59;;;;;;;0.98;0.98;;;19.00;50.70;;;;;;5027229;28;20506;-50
2024/01/18 04:42:24;;;;;;;1.33;1.05;;;19.10;50.80;;;;;;5042786;28;20098;-48
2024/01/18 04:44:50;;;;;;;1.40;1.30;;;19.00;50.70;;;;;;5044101;28;20102;-50
2024/01/18 04:47:15;;;;;;;1.23;1.13;;;19.00;50.70;;;;;;5048363;28;20520;-48
2024/01/18 04:49:41;;;;;;;1.23;1.13;;;19.10;50.80;;;;;;5044485;28;20497;-49
2024/01/18 04:52:06;;;;;;;1.45;1.35;;;19.10;50.70;;;;;;5043398;28;20035;-48
2024/01/18 04:54:32;;;;;;;1.20;1.10;;;19.10;50.80;;;;;;5046313;28;20028;-47
2024/01/18 04:56:58;;;;;;;1.23;1.00;;;19.10;50.70;;;;;;5034625;28;20571;-48
2024/01/18 04:59:24;;;;;;;1.10;1.02;;;19.00;50.70;;;;;;5047139;28;20082;-48
2024/01/18 05:01:49;;;;;;;1.00;0.90;;;19.10;50.70;;;;;;5044927;28;20060;-49
2024/01/18 05:04:15;;;;;;;1.10;1.00;;;19.00;50.70;;;;;;5028313;28;20025;-49
2024/01/18 05:06:40;;;;;;;2.53;1.10;;;19.10;50.70;;;;;;5048390;28;20122;-49
2024/01/18 05:09:06;;;;;;;1.30;1.20;;;19.10;50.70;;;;;;5046586;28;20078;-48
2024/01/18 05:11:31;;;;;;;1.35;1.10;;;19.10;50.60;;;;;;5045158;28;20381;-48
2024/01/18 05:13:57;;;;;;;1.45;1.20;;;19.10;50.70;;;;;;5046037;28;20044;-49
2024/01/18 05:16:23;;;;;;;1.27;1.17;;;19.10;50.60;;;;;;5046569;28;20629;-50
2024/01/18 05:18:48;;;;;;;1.50;1.40;;;19.10;50.60;;;;;;5046899;28;20086;-49
2024/01/18 05:21:14;;;;;;;1.48;1.10;;;19.10;50.60;;;;;;5060120;28;20051;-49
2024/01/18 05:23:39;;;;;;;1.08;0.98;;;19.10;50.60;;;;;;5053932;28;20041;-48
2024/01/18 05:26:05;;;;;;;1.40;1.30;;;19.10;50.60;;;;;;5037695;28;20029;-48
2024/01/18 05:28:30;;;;;;;1.30;1.05;;;19.10;50.60;;;;;;5057885;28;20032;-48
2024/01/18 05:30:57;;;;;;;1.17;1.00;;;19.10;50.60;;;;;;5046230;28;20033;-49
2024/01/18 05:33:22;;;;;;;1.00;0.90;;;19.10;50.60;;;;;;5043748;28;20072;-49
2024/01/18 05:35:48;;;;;;;1.23;1.13;;;19.10;50.60;;;;;;5050640;28;20643;-49
2024/01/18 05:38:14;;;;;;;1.20;1.10;;;19.10;50.60;;;;;;5041961;28;20481;-49
2024/01/18 05:40:39;;;;;;;2.08;1.33;;;19.10;50.60;;;;;;5048146;28;20061;-48
2024/01/18 05:43:05;;;;;;;1.33;1.20;;;19.10;50.60;;;;;;5047315;28;20025;-51
2024/01/18 05:45:30;;;;;;;1.55;1.20;;;19.10;50.60;;;;;;5043439;28;20158;-49
2024/01/18 05:47:56;;;;;;;2.13;1.10;;;19.00;50.60;;;;;;5049336;28;20115;-47
2024/01/18 05:50:23;;;;;;;1.27;1.05;;;19.00;50.60;;;;;;5048553;28;20033;-48
2024/01/18 05:52:48;;;;;;;1.85;1.55;;;19.10;50.60;;;;;;5044732;28;20564;-51
2024/01/18 05:55:14;;;;;;;1.20;1.10;;;19.00;50.60;;;;;;5054139;28;20116;-58
2024/01/18 05:57:39;;;;;;;1.42;1.20;;;19.00;50.60;;;;;;5051021;28;20130;-46
2024/01/18 06:00:06;;;;;;;1.95;1.20;;;19.00;50.60;;;;;;5043869;28;20110;-50
2024/01/18 06:02:32;;;;;;;2.03;1.33;;;19.10;50.60;;;;;;5048232;28;20033;-46
2024/01/18 06:04:57;;;;;;;1.10;1.00;;;19.00;50.60;;;;;;5050657;28;20037;-56
2024/01/18 06:07:24;;;;;;;1.27;1.27;;;19.00;50.60;;;;;;5037799;28;20037;-55
2024/01/18 06:09:49;;;;;;;1.15;0.95;;;19.00;50.60;;;;;;5050364;28;20060;-52
2024/01/18 06:12:15;;;;;;;1.38;1.17;;;19.10;50.70;;;;;;5049292;28;20068;-54
2024/01/18 06:14:41;;;;;;;1.33;1.02;;;19.00;50.70;;;;;;5048392;28;20040;-56
2024/01/18 06:17:07;;;;;;;1.40;1.30;;;19.00;50.60;;;;;;5051045;28;20029;-52
2024/01/18 06:19:32;;;;;;;1.17;1.00;;;19.00;50.60;;;;;;5049040;28;20516;-49
2024/01/18 06:21:58;;;;;;;1.52;1.10;;;19.10;50.70;;;;;;5046776;28;20029;-50
2024/01/18 06:24:25;;;;;;;2.65;1.20;;;19.00;50.70;;;;;;5048644;28;20017;-50
2024/01/18 06:26:51;;;;;;;1.20;0.90;;;19.00;50.60;;;;;;5031571;28;20051;-51
2024/01/18 06:29:16;;;;;;;1.20;1.10;;;19.00;50.60;;;;;;5030058;28;20033;-51
2024/01/18 06:31:41;;;;;;;1.20;0.88;;;19.00;50.60;;;;;;5053462;28;20025;-55
2024/01/18 06:34:08;;;;;;;1.20;1.10;;;19.10;50.70;;;;;;5027838;28;20036;-52
2024/01/18 06:36:34;;;;;;;1.33;1.23;;;19.00;50.60;;;;;;5052625;28;20028;-54
2024/01/18 06:38:59;;;;;;;0.82;0.82;;;19.00;50.60;;;;;;5053172;28;20016;-55
2024/01/18 06:41:26;;;;;;;1.20;0.88;;;19.00;50.60;;;;;;5046049;28;20509;-48
2024/01/18 06:43:51;;;;;;;1.45;1.13;;;19.10;50.60;;;;;;5047236;28;20024;-48
2024/01/18 06:46:17;;;;;;;3.47;1.20;;;19.00;50.60;;;;;;5050632;28;20483;-48
2024/01/18 06:48:44;;;;;;;1.40;1.17;;;19.00;50.60;;;;;;5051424;28;20482;-48
2024/01/18 06:51:14;;;;;;;1.13;0.98;;;19.00;50.60;;;;;;5047536;28;20102;-48
2024/01/18 06:53:39;;;;;;;0.98;0.80;;;19.00;50.60;;;;;;5049428;28;20859;-48
2024/01/18 06:56:13;;;;;;;1.10;1.00;;;19.00;50.60;;;;;;5045560;28;20025;-49
2024/01/18 06:58:39;;;;;;;1.30;1.20;;;19.00;50.60;;;;;;5048619;28;20839;-49
2024/01/18 07:01:06;;;;;;;0.98;0.82;;;19.10;50.70;;;;;;5042037;28;20066;-49
2024/01/18 07:03:31;;;;;;;1.48;0.90;;;19.00;50.60;;;;;;5047393;28;20035;-47
2024/01/18 07:05:57;;;;;;;1.23;1.13;;;19.10;50.60;;;;;;5046651;28;20037;-48
2024/01/18 07:08:24;;;;;;;1.42;0.82;;;19.00;50.60;;;;;;5044343;28;20053;-48
2024/01/18 07:10:49;;;;;;;1.25;1.00;;;19.00;50.60;;;;;;5046103;28;20173;-47
2024/01/18 07:13:15;;;;;;;1.40;1.23;;;19.00;50.60;;;;;;5052375;28;20544;-49
2024/01/18 07:15:40;;;;;;;1.30;1.00;;;19.00;50.60;;;;;;5049465;28;20109;-48
2024/01/18 07:18:06;;;;;;;1.15;0.90;;;19.00;50.60;;;;;;5045707;28;20179;-50
2024/01/18 07:20:31;;;;;;;1.33;0.95;;;19.00;50.60;;;;;;5048929;28;20517;-48
2024/01/18 07:22:57;;;;;;;1.00;0.95;;;19.00;50.60;;;;;;5042539;28;20041;-48
2024/01/18 07:25:22;;;;;;;0.68;0.65;;;19.00;50.60;;;;;;5046661;28;20120;-49
2024/01/18 07:27:48;;;;;;;1.10;1.00;;;19.00;50.60;;;;;;5050705;28;20102;-47
2024/01/18 07:30:14;;;;;;;1.00;0.90;;;19.00;50.60;;;;;;5046700;28;20033;-48
2024/01/18 07:32:40;;;;;;;1.65;1.10;;;19.00;50.60;;;;;;5047039;28;20040;-48
2024/01/18 07:35:06;;;;;;;1.38;0.93;;;19.00;51.30;;;;;;5045937;28;20491;-54
2024/01/18 07:37:32;;;;;;;1.08;0.98;;;19.00;50.70;;;;;;5043738;28;20040;-48
2024/01/18 07:39:57;;;;;;;3.13;1.48;;;19.00;50.80;;;;;;5049331;28;20036;-48
2024/01/18 07:42:23;;;;;;;2.25;0.93;;;18.90;50.70;;;;;;5042034;28;20040;-51
2024/01/18 07:44:48;;;;;;;2.25;1.10;;;18.90;50.70;;;;;;5047834;28;20115;-49
2024/01/18 07:47:13;;;;;;;1.70;1.27;;;18.90;50.80;;;;;;5047691;28;20029;-52
2024/01/18 07:49:45;;;;;;;2.03;1.30;;;18.90;50.80;;;;;;5046948;28;20968;-48
2024/01/18 07:52:14;;;;;;;1.20;1.10;;;18.90;50.90;;;;;;5044985;28;20520;-50
2024/01/18 07:54:40;;;;;;;2.78;1.30;;;18.90;50.90;;;;;;5050516;28;20060;-48
2024/01/18 07:57:06;;;;;;;1.92;1.23;;;18.80;50.90;;;;;;5046455;28;20114;-45
2024/01/18 07:59:31;;;;;;;1.50;1.05;;;18.80;50.90;;;;;;5047697;28;20029;-55
2024/01/18 08:01:57;;;;;;;1.65;1.55;;;18.80;50.90;;;;;;5044585;28;20037;-56
2024/01/18 08:04:22;;;;;;;1.15;0.95;;;18.80;50.90;;;;;;5046334;28;20029;-54
2024/01/18 08:06:48;;;;;;;2.22;1.30;;;18.80;50.90;;;;;;5049120;28;20391;-49
2024/01/18 08:09:15;;;;;;;1.73;1.45;;;18.80;50.90;;;;;;5048619;28;20436;-48
2024/01/18 08:11:40;;;;;;;3.33;1.50;;;18.80;50.90;;;;;;5048851;28;20133;-57
2024/01/18 08:14:06;;;;;;;4.07;1.27;;;18.80;51.00;;;;;;5047344;28;20628;-47
2024/01/18 08:16:32;;;;;;;2.28;1.30;;;18.80;50.90;;;;;;5045872;28;20051;-46
2024/01/18 08:18:58;;;;;;;3.45;1.52;;;18.80;51.00;;;;;;5047540;28;20097;-51
2024/01/18 08:21:23;;;;;;;1.73;1.30;;;18.80;51.00;;;;;;5045721;28;20518;-55
2024/01/18 08:23:49;;;;;;;2.13;1.80;;;18.80;50.90;;;;;;5047242;28;20032;-49
2024/01/18 08:26:16;;;;;;;2.42;1.25;;;18.80;51.00;;;;;;5027219;28;20044;-49
2024/01/18 08:28:43;;;;;;;2.05;1.33;;;18.70;51.00;;;;;;5045364;28;20149;-48
2024/01/18 08:31:08;;;;;;;1.80;1.38;;;18.80;51.00;;;;;;5036487;28;20036;-50
2024/01/18 08:33:34;;;;;;;1.42;1.25;;;18.70;51.00;;;;;;5042644;28;20444;-47
2024/01/18 08:36:00;;;;;;;3.03;1.30;;;18.70;51.00;;;;;;5040117;28;20133;-46
2024/01/18 08:38:26;;;;;;;2.63;1.27;;;18.70;51.00;;;;;;5039948;28;20627;-49
2024/01/18 08:40:52;;;;;;;1.52;1.05;;;18.70;51.00;;;;;;5041593;28;20040;-47
2024/01/18 08:43:19;;;;;;;2.35;1.17;;;18.70;51.10;;;;;;5045062;28;20397;-49
2024/01/18 08:45:45;;;;;;;1.92;1.40;;;18.70;51.10;;;;;;5045014;28;20037;-47
2024/01/18 08:48:10;;;;;;;2.33;1.15;;;18.70;51.10;;;;;;5041720;28;20167;-50
2024/01/18 08:50:36;;;;;;;1.23;1.13;;;18.60;51.10;;;;;;5044847;28;20537;-46
2024/01/18 08:53:01;;;;;;;2.25;1.40;;;18.60;51.20;;;;;;5040412;28;20048;-52
2024/01/18 08:55:27;;;;;;;1.42;1.23;;;18.60;51.20;;;;;;5044678;28;20375;-46
2024/01/18 08:57:53;;;;;;;2.40;1.30;;;18.60;51.30;;;;;;5044643;28;20497;-48
2024/01/18 09:00:18;;;;;;;1.70;1.35;;;18.50;51.40;;;;;;5023888;28;20159;-48
2024/01/18 09:02:44;;;;;;;1.50;1.20;;;18.50;51.40;;;;;;5043955;28;20033;-48
2024/01/18 09:05:10;;;;;;;4.60;1.67;;;18.50;51.50;;;;;;5024487;28;20029;-46
2024/01/18 09:07:36;;;;;;;1.90;1.60;;;18.50;51.50;;;;;;5046583;28;20059;-52
2024/01/18 09:10:02;;;;;;;1.73;1.27;;;18.40;51.50;;;;;;5039989;28;20033;-49
2024/01/18 09:12:28;;;;;;;3.80;1.70;;;18.50;51.70;;;;;;5040292;28;20043;-49
2024/01/18 09:14:54;;;;;;;1.60;1.50;;;18.40;51.70;;;;;;5039328;28;20044;-52
2024/01/18 09:17:20;;;;;;;3.53;1.52;;;18.40;51.80;;;;;;5039334;28;20036;-48
2024/01/18 09:19:46;;;;;;;2.35;1.67;;;18.30;51.90;;;;;;5040258;28;20029;-50
2024/01/18 09:22:11;;;;;;;2.88;1.48;;;18.30;51.80;;;;;;5043278;28;20025;-49
2024/01/18 09:24:37;;;;;;;2.60;1.92;;;18.30;51.80;;;;;;5039626;28;20037;-48
2024/01/18 09:27:02;;;;;;;3.55;2.13;;;18.30;51.70;;;;;;5042259;28;20195;-52
2024/01/18 09:29:28;;;;;;;4.25;2.08;;;18.20;51.60;;;;;;5041579;28;20029;-49
2024/01/18 09:31:55;;;;;;;2.13;1.90;;;18.20;51.60;;;;;;5043712;28;20040;-48
2024/01/18 09:34:21;;;;;;;2.97;1.80;;;18.20;51.50;;;;;;5043332;28;20036;-47
2024/01/18 09:36:46;;;;;;;2.15;1.80;;;18.20;51.70;;;;;;5044633;28;20551;-51
2024/01/18 09:39:15;;;;;;;2.90;2.00;;;18.20;51.80;;;;;;5049552;28;20029;-47
2024/01/18 09:41:42;;;;;;;2.67;1.58;;;18.20;51.70;;;;;;5043015;28;20112;-46
2024/01/18 09:44:11;;;;;;;2.70;2.10;;;18.30;51.40;;;;;;5050152;28;20385;-51
2024/01/18 09:46:38;;;;;;;2.00;1.65;;;18.50;51.30;;;;;;5043265;28;20518;-50
2024/01/18 09:49:04;;;;;;;2.67;1.98;;;18.60;50.90;;;;;;5050506;28;20524;-55
2024/01/18 09:51:30;;;;;;;3.60;1.90;;;18.80;50.50;;;;;;5044193;28;20033;-46
2024/01/18 09:53:56;;;;;;;4.68;2.63;;;19.00;50.20;;;;;;5046625;28;20028;-48
2024/01/18 09:56:24;;;;;;;2.85;2.45;;;19.20;49.90;;;;;;5044949;28;20024;-47
2024/01/18 09:58:52;;;;;;;3.17;2.45;;;19.40;49.60;;;;;;5045195;28;20029;-53
2024/01/18 10:01:20;;;;;;;3.63;2.42;;;19.50;49.30;;;;;;5041017;28;20108;-53
2024/01/18 10:03:46;;;;;;;3.10;2.35;;;19.70;49.00;;;;;;5028145;28;20041;-48
2024/01/18 10:06:12;;;;;;;4.20;2.72;;;19.80;48.60;;;;;;5047701;28;20260;-47
2024/01/18 10:08:38;;;;;;;2.95;2.08;;;20.00;48.90;;;;;;5048951;28;20029;-48
2024/01/18 10:11:04;;;;;;;3.10;2.08;;;20.10;48.20;;;;;;5043796;28;20739;-46
2024/01/18 10:13:29;;;;;;;3.58;2.50;;;20.30;48.10;;;;;;5045268;28;20665;-51
2024/01/18 10:15:55;;;;;;;4.60;2.35;;;20.40;47.90;;;;;;5045213;28;20032;-53
2024/01/18 10:18:20;;;;;;;3.47;2.28;;;20.50;47.70;;;;;;5042922;22;20038;-50
2024/01/18 10:20:50;;;;;;;3.10;2.45;;;20.60;47.60;;;;;;5034184;28;20045;-49
2024/01/18 10:23:15;;;;;;;2.95;2.53;;;20.70;47.40;;;;;;5029063;28;20033;-48
2024/01/18 10:25:41;;;;;;;2.60;1.98;;;20.80;47.40;;;;;;5025647;28;20044;-53
2024/01/18 10:28:06;;;;;;;2.90;2.20;;;20.80;47.30;;;;;;5025466;28;20700;-49
2024/01/18 10:30:33;;;;;;;2.97;2.42;;;20.90;47.30;;;;;;5026068;28;20037;-51
2024/01/18 10:33:00;;;;;;;3.70;2.00;;;20.80;47.30;;;;;;5028633;28;20044;-48
2024/01/18 10:35:28;;;;;;;3.80;2.20;;;20.80;47.40;;;;;;5029419;28;20072;-47
2024/01/18 10:38:03;;;;;;;5.20;2.30;;;20.70;47.50;;;;;;5023137;28;20037;-49
2024/01/18 10:40:31;;;;;;;4.03;2.53;;;20.70;47.70;;;;;;5026874;28;20403;-53
2024/01/18 10:42:57;;;;;;;3.90;2.13;;;20.60;47.80;;;;;;5024149;28;21192;-49
2024/01/18 10:45:23;;;;;;;4.20;2.30;;;20.50;47.90;;;;;;5016780;28;20591;-51
2024/01/18 10:47:48;;;;;;;3.55;2.95;;;20.40;48.10;;;;;;5027380;28;20040;-49
2024/01/18 10:50:14;;;;;;;4.25;2.55;;;20.40;48.30;;;;;;5027828;28;20092;-48
2024/01/18 10:52:42;;;;;;;4.18;2.50;;;20.30;48.50;;;;;;5020840;28;20037;-48
2024/01/18 10:55:09;;;;;;;3.28;2.75;;;20.20;48.60;;;;;;5022909;28;20120;-50
2024/01/18 10:57:35;;;;;;;3.30;2.53;;;20.20;48.70;;;;;;5021828;28;20105;-51
2024/01/18 11:00:01;;;;;;;2.78;2.35;;;20.00;48.80;;;;;;5025694;28;21081;-47
2024/01/18 11:02:27;;;;;;;2.88;2.30;;;20.00;49.00;;;;;;5029111;28;20041;-47
2024/01/18 11:04:54;;;;;;;3.25;2.40;;;19.90;49.00;;;;;;5020212;28;20040;-50
2024/01/18 11:07:20;;;;;;;3.63;2.30;;;19.80;49.20;;;;;;5025089;28;20048;-47
2024/01/18 11:09:46;;;;;;;4.40;3.17;;;19.80;49.40;;;;;;5022021;28;20033;-52
2024/01/18 11:12:13;;;;;;;4.47;2.90;;;19.70;50.10;;;;;;5027533;28;20047;-49
2024/01/18 11:14:40;;;;;;;3.50;2.67;;;19.60;49.60;;;;;;5027460;28;20040;-49
2024/01/18 11:17:15;;;;;;;2.85;2.47;;;19.50;49.70;;;;;;5027458;28;20486;-47
2024/01/18 11:19:42;;;;;;;3.25;2.72;;;19.50;49.80;;;;;;5027276;28;20665;-46
2024/01/18 11:22:25;;;;;;;4.65;2.67;;;19.40;49.90;;;;;;5034590;28;20060;-47
2024/01/18 11:24:50;;;;;;;3.67;3.03;;;19.30;50.00;;;;;;5028277;28;20038;-50
2024/01/18 11:27:20;;;;;;;4.07;2.97;;;19.30;50.10;;;;;;5030758;28;20394;-52
2024/01/18 11:29:46;;;;;;;3.60;2.95;;;19.20;50.20;;;;;;5028877;28;20037;-48
2024/01/18 11:32:14;;;;;;;4.35;3.05;;;19.20;50.40;;;;;;5023781;28;20124;-51
2024/01/18 11:34:40;;;;;;;4.65;2.88;;;19.20;50.50;;;;;;5033582;28;20036;-50
2024/01/18 11:37:12;;;;;;;3.75;2.80;;;19.10;50.60;;;;;;5031211;28;20115;-51
2024/01/18 11:39:56;;;;;;;3.30;2.63;;;19.00;50.70;;;;;;5027432;28;20036;-47
2024/01/18 11:42:30;;;;;;;3.78;2.95;;;19.00;50.80;;;;;;5026187;28;20434;-47
2024/01/18 11:45:14;;;;;;;3.13;2.45;;;18.90;50.90;;;;;;5028702;28;20098;-47
2024/01/18 11:47:39;;;;;;;3.92;2.72;;;18.90;51.00;;;;;;5028551;28;20039;-47
2024/01/18 11:50:08;;;;;;;4.43;3.15;;;18.80;51.10;;;;;;5034433;28;20036;-58
2024/01/18 11:52:36;;;;;;;3.85;2.90;;;18.80;51.10;;;;;;5026592;28;20037;-47
2024/01/18 11:55:02;;;;;;;3.53;2.60;;;18.80;51.20;;;;;;5026354;28;20036;-47
2024/01/18 11:57:29;;;;;;;3.53;2.58;;;18.80;51.30;;;;;;5033269;28;20034;-47
2024/01/18 11:59:54;;;;;;;3.92;2.58;;;18.70;51.20;;;;;;5025890;28;20029;-47
2024/01/18 12:02:24;;;;;;;3.70;2.63;;;18.70;51.30;;;;;;5027940;28;20135;-47
2024/01/18 12:04:50;;;;;;;3.00;2.38;;;18.70;51.30;;;;;;5031460;28;20079;-48
2024/01/18 12:07:16;;;;;;;3.95;2.67;;;18.70;51.40;;;;;;5026746;28;20441;-48
2024/01/18 12:09:42;;;;;;;4.03;3.17;;;18.70;51.50;;;;;;5029823;28;20041;-48
2024/01/18 12:12:09;;;;;;;3.30;2.58;;;18.60;51.40;;;;;;5030564;28;20053;-48
2024/01/18 12:14:39;;;;;;;4.32;3.08;;;18.50;51.40;;;;;;5025923;28;20029;-48
2024/01/18 12:17:05;;;;;;;3.55;2.80;;;18.60;51.50;;;;;;5031803;28;20033;-47
2024/01/18 12:19:35;;;;;;;3.42;2.50;;;18.60;52.10;;;;;;5030283;28;20442;-51
2024/01/18 12:22:02;;;;;;;3.70;2.75;;;18.60;51.40;;;;;;5025514;28;20032;-50
2024/01/18 12:24:28;;;;;;;4.22;2.95;;;18.70;51.30;;;;;;5034922;28;20179;-48
2024/01/18 12:26:54;;;;;;;2.88;2.17;;;18.70;51.10;;;;;;5018102;28;20030;-48
2024/01/18 12:29:20;;;;;;;2.40;2.10;;;18.80;50.80;;;;;;5022260;28;20379;-49
2024/01/18 12:31:46;;;;;;;3.25;2.63;;;19.00;50.50;;;;;;5031888;28;20031;-49
2024/01/18 12:34:12;;;;;;;3.10;2.47;;;19.10;50.20;;;;;;5029826;28;20032;-49
2024/01/18 12:36:39;;;;;;;3.35;2.65;;;19.30;50.00;;;;;;5024829;28;20017;-48
2024/01/18 12:39:04;;;;;;;3.20;2.65;;;19.40;49.80;;;;;;5035624;28;20047;-48
2024/01/18 12:41:30;;;;;;;3.47;3.00;;;19.50;49.60;;;;;;5026496;28;20026;-48